Time;durP1;ratioP1;P1;durP2;ratioP2;P2;SDS_P1;SDS_P2;PMS_P1;PMS_P2;Temp;Humidity;BMP_temperature;BMP_pressure;BME280_temperature;BME280_humidity;BME280_pressure;Samples;Min_cycle;Max_cycle;Signal;HPM_P1;HPM_P2
2022/03/05 00:01:54;;;;;;;21.25;11.43;;;26.10;99.90;;;;;;5075681;28;20032;-60
2022/03/05 00:04:21;;;;;;;22.05;11.70;;;26.10;99.90;;;;;;5075802;28;20028;-60
2022/03/05 00:06:49;;;;;;;13.88;9.20;;;26.10;99.90;;;;;;5074692;28;20477;-60
2022/03/05 00:09:20;;;;;;;15.80;10.23;;;26.20;99.90;;;;;;5075726;28;20425;-60
2022/03/05 00:11:46;;;;;;;20.33;12.15;;;26.10;99.90;;;;;;5075803;28;20052;-59
2022/03/05 00:14:14;;;;;;;20.98;13.38;;;26.10;99.90;;;;;;5075272;28;20028;-59
2022/03/05 00:16:41;;;;;;;19.33;15.25;;;26.00;99.90;;;;;;5075301;28;20036;-59
2022/03/05 00:19:08;;;;;;;26.50;18.90;;;26.10;99.90;;;;;;5075616;28;20024;-59
2022/03/05 00:21:35;;;;;;;27.63;20.65;;;26.00;99.90;;;;;;5075076;28;20040;-60
2022/03/05 00:24:01;;;;;;;30.58;24.00;;;26.10;99.90;;;;;;5075404;28;20025;-60
2022/03/05 00:26:28;;;;;;;41.88;31.85;;;26.10;99.90;;;;;;5075150;28;20037;-60
2022/03/05 00:28:55;;;;;;;42.50;35.47;;;26.20;99.90;;;;;;5075393;28;20149;-60
2022/03/05 00:31:21;;;;;;;44.10;38.80;;;26.20;99.90;;;;;;5074716;28;20114;-62
2022/03/05 00:33:48;;;;;;;49.90;38.97;;;26.10;99.90;;;;;;5075237;28;20028;-60
2022/03/05 00:36:15;;;;;;;51.13;44.25;;;26.10;99.90;;;;;;5074758;28;20496;-60
2022/03/05 00:38:41;;;;;;;54.88;45.17;;;26.10;99.90;;;;;;5074879;28;20040;-60
2022/03/05 00:41:08;;;;;;;54.60;45.22;;;26.20;99.90;;;;;;5074998;28;20492;-60
2022/03/05 00:43:35;;;;;;;55.85;48.83;;;26.20;99.90;;;;;;5075106;28;20107;-60
2022/03/05 00:46:02;;;;;;;50.00;43.85;;;26.20;99.90;;;;;;5074642;28;20082;-61
2022/03/05 00:48:29;;;;;;;56.10;45.92;;;26.20;99.90;;;;;;5074605;28;20082;-60
2022/03/05 00:50:55;;;;;;;53.67;42.45;;;26.30;99.90;;;;;;5074911;28;20028;-60
2022/03/05 00:53:22;;;;;;;50.53;41.83;;;26.30;99.90;;;;;;5074945;28;20117;-61
2022/03/05 00:55:49;;;;;;;49.92;43.92;;;26.40;99.90;;;;;;5074918;28;20064;-60
2022/03/05 00:58:16;;;;;;;47.20;42.08;;;26.40;99.90;;;;;;5074194;28;20478;-60
2022/03/05 01:00:42;;;;;;;50.60;43.08;;;26.40;99.90;;;;;;5074715;28;20107;-61
2022/03/05 01:03:09;;;;;;;47.35;42.28;;;26.50;99.90;;;;;;5071952;28;20032;-60
2022/03/05 01:05:36;;;;;;;51.03;43.70;;;26.50;99.90;;;;;;5068787;28;20509;-60
2022/03/05 01:08:02;;;;;;;50.60;39.83;;;26.50;99.90;;;;;;5063617;28;20036;-60
2022/03/05 01:10:29;;;;;;;51.47;39.17;;;26.50;99.90;;;;;;5066689;28;20473;-60
2022/03/05 01:12:56;;;;;;;49.63;42.40;;;26.50;99.90;;;;;;5062942;28;20037;-59
2022/03/05 01:15:23;;;;;;;49.28;38.15;;;26.50;99.90;;;;;;5072510;28;20032;-59
2022/03/05 01:17:49;;;;;;;44.65;37.20;;;26.60;99.90;;;;;;5062781;28;20025;-60
2022/03/05 01:20:16;;;;;;;48.33;40.70;;;26.50;99.90;;;;;;5070609;28;20041;-60
2022/03/05 01:22:43;;;;;;;53.45;42.75;;;26.60;99.90;;;;;;5071560;28;20108;-60
2022/03/05 01:25:09;;;;;;;45.15;36.88;;;26.60;99.90;;;;;;5058730;28;20025;-60
2022/03/05 01:27:36;;;;;;;45.20;36.03;;;26.50;99.90;;;;;;5057725;28;20020;-60
2022/03/05 01:30:03;;;;;;;43.47;34.30;;;26.50;99.90;;;;;;5059736;28;20058;-60
2022/03/05 01:32:30;;;;;;;45.60;34.00;;;26.40;99.90;;;;;;5064782;28;20112;-63
2022/03/05 01:34:56;;;;;;;41.50;33.90;;;26.50;99.90;;;;;;5064931;28;20031;-63
2022/03/05 01:37:23;;;;;;;35.42;30.98;;;26.60;99.90;;;;;;5066642;28;20036;-63
2022/03/05 01:39:50;;;;;;;29.33;23.73;;;26.60;99.90;;;;;;5062727;28;20052;-62
2022/03/05 01:42:21;;;;;;;30.88;22.45;;;26.50;99.90;;;;;;5063942;28;20094;-63
2022/03/05 01:44:48;;;;;;;29.90;23.95;;;26.60;99.90;;;;;;5066466;28;20025;-63
2022/03/05 01:47:15;;;;;;;25.10;22.38;;;26.60;99.90;;;;;;5060901;28;20055;-64
2022/03/05 01:49:41;;;;;;;30.00;21.17;;;26.60;99.90;;;;;;5058322;28;20470;-64
2022/03/05 01:52:09;;;;;;;30.50;21.20;;;26.60;99.90;;;;;;5065352;28;20028;-63
2022/03/05 01:54:35;;;;;;;30.48;21.95;;;26.50;99.90;;;;;;5067506;28;20036;-62
2022/03/05 01:57:03;;;;;;;24.67;19.50;;;26.50;99.90;;;;;;5071394;28;20024;-61
2022/03/05 01:59:31;;;;;;;29.33;24.52;;;26.50;99.90;;;;;;5073146;28;20036;-62
2022/03/05 02:01:57;;;;;;;33.50;26.20;;;26.50;99.90;;;;;;5064278;28;20492;-62
2022/03/05 02:04:24;;;;;;;34.35;26.55;;;26.50;99.90;;;;;;5070546;28;20090;-63
2022/03/05 02:06:54;;;;;;;83.47;70.18;;;26.60;99.90;;;;;;5072993;28;20035;-61
2022/03/05 02:09:21;;;;;;;109.32;78.93;;;26.60;99.90;;;;;;5064031;28;20145;-63
2022/03/05 02:11:48;;;;;;;101.88;80.20;;;26.60;99.90;;;;;;5066458;28;20039;-63
2022/03/05 02:14:19;;;;;;;54.15;46.50;;;26.50;99.90;;;;;;5061709;28;20040;-61
2022/03/05 02:16:47;;;;;;;54.60;48.00;;;26.50;99.90;;;;;;5061895;28;20530;-61
2022/03/05 02:19:13;;;;;;;50.42;39.92;;;26.50;99.90;;;;;;5065322;28;20038;-63
2022/03/05 02:21:40;;;;;;;46.60;38.10;;;26.50;99.90;;;;;;5055699;28;20045;-64
2022/03/05 02:24:07;;;;;;;45.40;37.42;;;26.40;99.90;;;;;;5068473;28;20424;-63
2022/03/05 02:26:34;;;;;;;47.53;38.22;;;26.40;99.90;;;;;;5073684;28;20095;-62
2022/03/05 02:29:01;;;;;;;71.63;58.60;;;26.30;99.90;;;;;;5074159;28;20036;-62
2022/03/05 02:31:28;;;;;;;80.18;64.72;;;26.30;99.90;;;;;;5077367;28;20066;-63
2022/03/05 02:33:55;;;;;;;76.40;57.05;;;26.30;99.90;;;;;;5076072;28;20082;-62
2022/03/05 02:36:25;;;;;;;75.75;58.42;;;26.40;99.90;;;;;;5065078;28;20061;-63
2022/03/05 02:38:53;;;;;;;35.50;28.08;;;26.40;99.90;;;;;;5072705;28;20036;-64
2022/03/05 02:41:20;;;;;;;129.32;92.35;;;26.40;99.90;;;;;;5077566;28;20385;-63
2022/03/05 02:43:47;;;;;;;57.50;44.97;;;26.40;99.90;;;;;;5077369;28;20036;-63
2022/03/05 02:46:14;;;;;;;77.70;61.53;;;26.40;99.90;;;;;;5074540;28;20485;-63
2022/03/05 02:48:40;;;;;;;39.83;29.90;;;26.40;99.90;;;;;;5065708;28;20037;-63
2022/03/05 02:51:07;;;;;;;33.22;25.42;;;26.50;99.90;;;;;;5072416;28;20036;-63
2022/03/05 02:53:34;;;;;;;32.10;25.63;;;26.50;99.90;;;;;;5077261;28;20082;-65
2022/03/05 02:56:01;;;;;;;38.70;26.58;;;26.50;99.90;;;;;;5076484;28;20048;-64
2022/03/05 02:58:28;;;;;;;32.88;26.75;;;26.60;99.90;;;;;;5076225;28;20418;-65
2022/03/05 03:00:55;;;;;;;31.17;25.75;;;26.60;99.90;;;;;;5076439;28;20020;-64
2022/03/05 03:03:21;;;;;;;30.67;24.02;;;26.60;99.90;;;;;;5076951;28;20078;-65
2022/03/05 03:05:48;;;;;;;32.60;24.83;;;26.70;99.90;;;;;;5076664;28;20499;-64
2022/03/05 03:08:14;;;;;;;32.85;23.70;;;26.70;99.90;;;;;;5070358;28;20043;-65
2022/03/05 03:10:41;;;;;;;37.03;29.45;;;26.70;99.90;;;;;;5060224;28;20412;-65
2022/03/05 03:13:08;;;;;;;30.17;25.25;;;26.70;99.90;;;;;;5056665;28;20036;-64
2022/03/05 03:15:34;;;;;;;30.00;26.23;;;26.70;99.90;;;;;;5056474;28;20070;-65
2022/03/05 03:18:01;;;;;;;35.30;29.88;;;26.70;99.90;;;;;;5056554;28;20029;-65
2022/03/05 03:20:28;;;;;;;32.15;27.00;;;26.80;99.90;;;;;;5056280;28;20044;-64
2022/03/05 03:22:56;;;;;;;30.73;24.63;;;26.70;99.90;;;;;;5056425;28;20029;-64
2022/03/05 03:25:23;;;;;;;72.35;55.63;;;26.70;99.90;;;;;;5056875;28;20078;-64
2022/03/05 03:27:51;;;;;;;26.48;23.08;;;26.80;99.90;;;;;;5058006;28;20021;-64
2022/03/05 03:30:19;;;;;;;73.72;57.63;;;26.90;99.90;;;;;;5058373;28;20086;-64
2022/03/05 03:32:46;;;;;;;50.28;39.08;;;26.90;99.90;;;;;;5056086;28;20044;-65
2022/03/05 03:35:14;;;;;;;27.85;22.15;;;27.00;99.90;;;;;;5056058;28;20017;-64
2022/03/05 03:37:42;;;;;;;31.23;23.45;;;27.00;99.90;;;;;;5055914;28;20100;-65
2022/03/05 03:40:10;;;;;;;23.83;19.52;;;27.10;99.90;;;;;;5055910;28;20031;-64
2022/03/05 03:42:38;;;;;;;24.17;19.27;;;27.10;99.90;;;;;;5056199;28;20049;-65
2022/03/05 03:45:06;;;;;;;25.67;19.90;;;27.30;99.90;;;;;;5055833;28;20053;-65
2022/03/05 03:47:33;;;;;;;26.20;22.15;;;27.30;99.90;;;;;;5055951;28;20082;-65
2022/03/05 03:50:00;;;;;;;28.13;22.70;;;27.40;99.90;;;;;;5055891;28;20072;-65
2022/03/05 03:52:27;;;;;;;31.02;21.90;;;27.40;99.90;;;;;;5055662;28;20143;-65
2022/03/05 03:54:53;;;;;;;27.77;20.15;;;27.40;99.90;;;;;;5055650;28;20087;-65
2022/03/05 03:57:20;;;;;;;27.45;21.90;;;27.50;99.90;;;;;;5055793;28;20108;-65
2022/03/05 03:59:47;;;;;;;40.60;30.08;;;27.50;99.90;;;;;;5055781;28;20052;-65
2022/03/05 04:02:14;;;;;;;37.35;23.55;;;27.50;99.90;;;;;;5055680;28;20470;-65
2022/03/05 04:04:41;;;;;;;32.40;20.17;;;27.60;99.90;;;;;;5055612;28;20037;-65
2022/03/05 04:09:38;;;;;;;30.67;18.15;;;27.70;99.90;;;;;;5055279;28;20025;-62
2022/03/05 04:12:05;;;;;;;19.90;14.77;;;27.70;99.90;;;;;;5056920;28;20481;-61
2022/03/05 04:14:32;;;;;;;23.35;15.93;;;27.80;99.90;;;;;;5066323;28;20031;-61
2022/03/05 04:16:59;;;;;;;16.92;13.65;;;27.90;99.90;;;;;;5057405;28;20044;-61
2022/03/05 04:19:26;;;;;;;17.10;13.43;;;28.00;99.90;;;;;;5068211;28;20020;-62
2022/03/05 04:21:52;;;;;;;19.35;14.25;;;28.10;99.90;;;;;;5067855;28;20055;-61
2022/03/05 04:24:19;;;;;;;24.55;14.00;;;28.20;99.90;;;;;;5062610;28;20028;-60
2022/03/05 04:26:46;;;;;;;15.20;12.73;;;28.30;99.90;;;;;;5073007;28;20055;-61
2022/03/05 04:29:12;;;;;;;17.33;11.88;;;28.30;99.90;;;;;;5073872;28;20032;-62
2022/03/05 04:31:39;;;;;;;16.17;11.15;;;28.50;99.90;;;;;;5075022;28;20101;-62
2022/03/05 04:34:06;;;;;;;14.48;10.00;;;28.50;99.90;;;;;;5071986;28;20441;-61
2022/03/05 04:36:33;;;;;;;16.17;9.82;;;28.70;99.90;;;;;;5066658;28;20496;-62
2022/03/05 04:38:59;;;;;;;39.72;29.42;;;28.80;99.90;;;;;;5066745;28;20056;-61
2022/03/05 04:41:26;;;;;;;69.47;52.95;;;28.90;99.90;;;;;;5074906;28;20028;-62
2022/03/05 04:43:52;;;;;;;20.10;13.48;;;29.00;99.90;;;;;;5067563;28;20103;-60
2022/03/05 04:46:19;;;;;;;19.00;12.63;;;29.20;99.90;;;;;;5056436;28;20025;-62
2022/03/05 04:48:46;;;;;;;21.65;16.17;;;29.30;99.90;;;;;;5055007;28;20033;-62
2022/03/05 04:51:12;;;;;;;18.08;13.13;;;29.40;99.90;;;;;;5072880;28;20044;-62
2022/03/05 04:53:39;;;;;;;18.50;13.40;;;29.50;99.90;;;;;;5070183;28;20033;-63
2022/03/05 04:56:06;;;;;;;15.80;11.50;;;29.50;99.90;;;;;;5069759;28;20408;-62
2022/03/05 04:58:32;;;;;;;16.48;10.25;;;29.50;99.90;;;;;;5074526;28;20056;-62
2022/03/05 05:01:01;;;;;;;15.43;10.68;;;29.50;99.90;;;;;;5074356;28;20134;-63
2022/03/05 05:03:28;;;;;;;17.52;11.77;;;29.50;99.90;;;;;;5073634;28;20119;-62
2022/03/05 05:05:55;;;;;;;12.45;10.60;;;29.50;99.90;;;;;;5055883;28;20059;-63
2022/03/05 05:08:21;;;;;;;12.90;9.73;;;29.60;99.90;;;;;;5054882;28;20035;-62
2022/03/05 05:10:48;;;;;;;19.20;10.95;;;29.70;99.90;;;;;;5060611;28;20025;-62
2022/03/05 05:13:15;;;;;;;19.27;12.63;;;29.80;99.90;;;;;;5066378;28;20032;-62
2022/03/05 05:15:42;;;;;;;19.55;13.73;;;29.90;99.90;;;;;;5064525;28;20020;-60
2022/03/05 05:18:09;;;;;;;18.38;11.57;;;29.90;99.90;;;;;;5073401;28;20107;-62
2022/03/05 05:20:35;;;;;;;25.13;15.48;;;30.00;99.90;;;;;;5064220;28;20430;-61
2022/03/05 05:23:03;;;;;;;44.17;33.67;;;30.10;99.90;;;;;;5063338;28;20047;-62
2022/03/05 05:25:32;;;;;;;16.58;11.38;;;30.30;99.90;;;;;;5060237;28;20424;-62
2022/03/05 05:27:59;;;;;;;14.57;10.27;;;30.30;99.90;;;;;;5062196;28;20020;-62
2022/03/05 05:30:26;;;;;;;13.10;11.18;;;30.20;99.90;;;;;;5063821;28;20040;-62
2022/03/05 05:32:52;;;;;;;14.93;9.70;;;30.20;99.90;;;;;;5064693;28;20025;-61
2022/03/05 05:35:19;;;;;;;12.98;10.43;;;30.30;99.90;;;;;;5062809;28;20420;-62
2022/03/05 05:37:46;;;;;;;16.63;9.50;;;30.30;99.90;;;;;;5062306;28;20025;-61
2022/03/05 05:40:13;;;;;;;17.10;9.95;;;30.40;99.90;;;;;;5063598;28;20016;-61
2022/03/05 05:42:39;;;;;;;12.52;10.07;;;30.50;99.90;;;;;;5063179;28;20028;-60
2022/03/05 05:45:06;;;;;;;14.07;11.18;;;30.50;99.90;;;;;;5061584;28;20107;-60
2022/03/05 05:47:33;;;;;;;12.75;10.27;;;30.40;99.90;;;;;;5063962;28;20159;-60
2022/03/05 05:50:00;;;;;;;11.73;10.00;;;30.40;99.90;;;;;;5067112;28;20381;-62
2022/03/05 05:52:26;;;;;;;17.42;10.90;;;30.40;99.90;;;;;;5061480;28;20067;-61
2022/03/05 05:54:53;;;;;;;24.58;13.85;;;30.40;99.90;;;;;;5062095;28;20032;-61
2022/03/05 05:57:20;;;;;;;21.90;14.98;;;30.30;99.90;;;;;;5062563;28;20033;-62
2022/03/05 05:59:46;;;;;;;24.73;14.57;;;30.30;99.90;;;;;;5062163;28;20029;-61
2022/03/05 06:02:13;;;;;;;20.75;12.95;;;30.30;99.90;;;;;;5061759;28;20033;-62
2022/03/05 06:04:40;;;;;;;15.63;11.35;;;30.30;99.90;;;;;;5054395;28;20037;-61
2022/03/05 06:07:07;;;;;;;13.95;11.90;;;30.30;99.90;;;;;;5066301;28;20029;-61
2022/03/05 06:09:33;;;;;;;13.85;11.77;;;30.40;99.90;;;;;;5072404;28;20028;-61
2022/03/05 06:12:00;;;;;;;20.70;11.07;;;30.40;99.90;;;;;;5068090;28;20089;-60
2022/03/05 06:14:27;;;;;;;14.98;11.77;;;30.40;99.90;;;;;;5058687;28;20052;-60
2022/03/05 06:16:53;;;;;;;18.30;11.80;;;30.40;99.90;;;;;;5062238;28;20047;-61
2022/03/05 06:19:20;;;;;;;15.07;12.40;;;30.40;99.90;;;;;;5073259;28;20537;-62
2022/03/05 06:21:47;;;;;;;17.95;12.32;;;30.40;99.90;;;;;;5070231;28;20045;-61
2022/03/05 06:24:13;;;;;;;15.63;11.90;;;30.30;99.90;;;;;;5071297;28;20037;-62
2022/03/05 06:26:40;;;;;;;20.27;13.15;;;30.30;99.90;;;;;;5071119;28;20029;-61
2022/03/05 06:29:07;;;;;;;18.25;13.32;;;30.40;99.90;;;;;;5070788;28;20063;-61
2022/03/05 06:31:33;;;;;;;16.20;12.10;;;30.40;99.90;;;;;;5071556;28;20029;-61
2022/03/05 06:34:00;;;;;;;21.02;16.15;;;30.50;99.90;;;;;;5067529;28;20043;-62
2022/03/05 06:36:28;;;;;;;17.15;14.32;;;30.40;99.90;;;;;;5068395;28;20024;-62
2022/03/05 06:38:54;;;;;;;22.73;15.35;;;30.70;99.90;;;;;;5071852;28;20504;-61
2022/03/05 06:41:22;;;;;;;22.35;15.48;;;30.70;99.90;;;;;;5072545;28;20086;-61
2022/03/05 06:43:49;;;;;;;22.10;14.80;;;30.80;99.90;;;;;;5072577;28;20388;-62
2022/03/05 06:46:15;;;;;;;18.67;14.25;;;30.80;99.90;;;;;;5061417;28;20036;-62
2022/03/05 06:48:42;;;;;;;19.70;15.30;;;30.80;99.90;;;;;;5063707;28;20142;-60
2022/03/05 06:51:09;;;;;;;19.60;13.63;;;30.90;99.90;;;;;;5068667;28;20071;-61
2022/03/05 06:53:36;;;;;;;17.35;14.38;;;31.00;99.90;;;;;;5067652;28;20066;-63
2022/03/05 06:56:02;;;;;;;18.60;13.20;;;31.00;99.90;;;;;;5066484;28;20031;-62
2022/03/05 06:58:29;;;;;;;18.13;13.05;;;31.00;99.90;;;;;;5069780;28;21072;-62
2022/03/05 07:00:56;;;;;;;17.30;12.48;;;31.20;99.90;;;;;;5068322;28;20020;-61
2022/03/05 07:03:22;;;;;;;13.57;12.07;;;31.30;99.90;;;;;;5070147;28;20033;-61
2022/03/05 07:05:49;;;;;;;18.05;12.27;;;31.40;99.90;;;;;;5065094;28;20032;-61
2022/03/05 07:08:16;;;;;;;14.75;13.00;;;31.50;99.90;;;;;;5056202;28;20111;-60
2022/03/05 07:10:42;;;;;;;15.38;12.18;;;31.60;99.90;;;;;;5063289;28;20029;-61
2022/03/05 07:13:09;;;;;;;12.82;11.48;;;31.60;99.90;;;;;;5066211;28;20033;-61
2022/03/05 07:15:36;;;;;;;15.85;11.10;;;31.50;99.90;;;;;;5069225;28;20358;-61
2022/03/05 07:18:02;;;;;;;15.93;11.57;;;31.60;99.90;;;;;;5068155;28;20040;-63
2022/03/05 07:20:29;;;;;;;13.18;11.70;;;31.50;99.90;;;;;;5068354;28;20402;-60
2022/03/05 07:22:56;;;;;;;15.88;11.20;;;31.50;99.90;;;;;;5062097;28;20024;-60
2022/03/05 07:25:23;;;;;;;15.32;12.25;;;31.40;99.90;;;;;;5067101;28;20024;-61
2022/03/05 07:27:50;;;;;;;14.55;12.55;;;31.30;99.90;;;;;;5065750;28;20032;-61
2022/03/05 07:30:17;;;;;;;13.52;12.23;;;31.20;99.90;;;;;;5065948;28;20036;-62
2022/03/05 07:32:44;;;;;;;14.77;12.25;;;31.20;99.90;;;;;;5064538;28;20024;-60
2022/03/05 07:35:11;;;;;;;15.55;13.10;;;31.20;99.90;;;;;;5092332;22;20110;-61
2022/03/05 07:37:37;;;;;;;17.80;13.63;;;31.20;99.90;;;;;;5076074;28;20416;-61
2022/03/05 07:40:05;;;;;;;14.55;12.77;;;31.20;99.90;;;;;;5075747;28;20438;-60
2022/03/05 07:42:31;;;;;;;17.25;13.10;;;31.20;99.90;;;;;;5073324;28;20036;-60
2022/03/05 07:44:58;;;;;;;17.92;13.65;;;31.20;99.90;;;;;;5076136;28;20031;-60
2022/03/05 07:47:25;;;;;;;15.95;13.40;;;31.30;99.90;;;;;;5076265;28;20027;-59
2022/03/05 07:49:51;;;;;;;15.75;12.20;;;31.40;99.90;;;;;;5076810;28;20397;-61
2022/03/05 07:52:18;;;;;;;17.90;12.63;;;31.40;99.90;;;;;;5075363;28;20021;-61
2022/03/05 07:54:45;;;;;;;20.98;10.73;;;31.50;99.90;;;;;;5070325;28;20021;-61
2022/03/05 07:57:12;;;;;;;17.33;13.27;;;31.60;99.90;;;;;;5067778;28;20483;-60
2022/03/05 07:59:39;;;;;;;14.52;11.68;;;31.60;99.90;;;;;;5069382;28;20488;-61
2022/03/05 08:02:06;;;;;;;16.60;11.38;;;31.60;99.90;;;;;;5071242;28;20029;-61
2022/03/05 08:04:32;;;;;;;19.08;10.73;;;31.70;99.90;;;;;;5069104;28;20025;-61
2022/03/05 08:06:59;;;;;;;13.50;12.15;;;31.70;99.90;;;;;;5064937;28;20462;-59
2022/03/05 08:09:25;;;;;;;15.52;11.93;;;31.70;99.90;;;;;;5065568;28;20043;-60
2022/03/05 08:11:52;;;;;;;14.63;12.32;;;31.80;99.90;;;;;;5066220;28;20037;-61
2022/03/05 08:14:19;;;;;;;23.42;12.85;;;31.80;99.90;;;;;;5064679;28;20104;-60
2022/03/05 08:16:46;;;;;;;15.13;13.20;;;31.80;99.90;;;;;;5065146;28;20020;-60
2022/03/05 08:19:12;;;;;;;17.33;12.00;;;31.90;99.90;;;;;;5066146;28;20039;-60
2022/03/05 08:21:39;;;;;;;18.30;11.95;;;32.00;99.30;;;;;;5064580;28;20017;-61
2022/03/05 08:24:06;;;;;;;16.70;13.43;;;32.00;99.00;;;;;;5064948;28;20032;-61
2022/03/05 08:26:33;;;;;;;15.00;11.73;;;32.00;98.50;;;;;;5066735;28;20025;-61
2022/03/05 08:29:00;;;;;;;14.07;12.55;;;32.10;98.50;;;;;;5066671;28;20025;-61
2022/03/05 08:31:26;;;;;;;20.08;14.35;;;32.10;98.10;;;;;;5064448;28;20092;-61
2022/03/05 08:33:53;;;;;;;15.27;11.30;;;32.00;99.00;;;;;;5074327;28;20041;-62
2022/03/05 08:36:20;;;;;;;12.68;11.00;;;32.10;98.30;;;;;;5075132;28;20096;-61
2022/03/05 08:38:46;;;;;;;14.38;11.68;;;32.10;96.90;;;;;;5074958;28;20027;-62
2022/03/05 08:41:13;;;;;;;16.92;15.13;;;32.20;97.10;;;;;;5069141;28;20082;-61
2022/03/05 08:43:39;;;;;;;17.10;13.77;;;32.20;96.60;;;;;;5064460;28;20464;-60
2022/03/05 08:46:07;;;;;;;18.70;14.75;;;32.20;97.00;;;;;;5071188;28;20090;-61
2022/03/05 08:48:34;;;;;;;45.70;31.38;;;32.20;96.90;;;;;;5074896;28;20039;-60
2022/03/05 08:51:00;;;;;;;22.98;19.15;;;32.10;97.40;;;;;;5066238;28;20033;-61
2022/03/05 08:53:27;;;;;;;13.80;11.63;;;32.20;97.40;;;;;;5064237;28;20020;-61
2022/03/05 08:55:54;;;;;;;14.07;12.38;;;32.20;96.80;;;;;;5065216;28;20029;-60
2022/03/05 08:58:21;;;;;;;15.43;10.88;;;32.10;97.90;;;;;;5069904;28;20023;-61
2022/03/05 09:00:49;;;;;;;13.65;10.95;;;32.10;96.40;;;;;;5064977;28;20104;-59
2022/03/05 09:03:16;;;;;;;14.60;11.85;;;32.20;96.40;;;;;;5071696;28;20472;-59
2022/03/05 09:05:44;;;;;;;16.00;11.38;;;32.10;96.40;;;;;;5074047;28;20454;-61
2022/03/05 09:08:10;;;;;;;13.73;11.38;;;32.10;97.00;;;;;;5073895;28;20403;-60
2022/03/05 09:10:37;;;;;;;13.60;11.80;;;32.10;97.50;;;;;;5074047;28;20536;-59
2022/03/05 09:13:04;;;;;;;13.77;11.68;;;32.00;96.80;;;;;;5074254;28;20029;-60
2022/03/05 09:15:31;;;;;;;13.45;11.57;;;32.00;96.70;;;;;;5073932;28;20483;-60
2022/03/05 09:17:57;;;;;;;15.65;13.05;;;32.00;97.10;;;;;;5074010;28;20388;-59
2022/03/05 09:20:24;;;;;;;18.70;12.98;;;32.00;96.10;;;;;;5073961;28;20155;-60
2022/03/05 09:22:51;;;;;;;16.65;12.88;;;32.00;96.60;;;;;;5073659;28;20111;-60
2022/03/05 09:25:17;;;;;;;15.60;12.93;;;32.00;96.30;;;;;;5067429;28;20021;-59
2022/03/05 09:27:45;;;;;;;14.10;12.60;;;31.90;96.90;;;;;;5053769;28;20433;-60
2022/03/05 09:30:12;;;;;;;19.05;12.77;;;32.00;97.40;;;;;;5053662;28;20071;-60
2022/03/05 09:32:39;;;;;;;14.30;11.77;;;32.00;97.50;;;;;;5053779;28;20538;-60
2022/03/05 09:35:06;;;;;;;14.15;11.40;;;32.00;97.00;;;;;;5053388;28;20045;-60
2022/03/05 09:37:34;;;;;;;13.10;11.80;;;32.00;97.20;;;;;;5055851;28;20027;-59
2022/03/05 09:40:03;;;;;;;13.57;11.38;;;32.10;96.80;;;;;;5064195;28;20052;-59
2022/03/05 09:42:30;;;;;;;13.43;11.23;;;32.10;97.20;;;;;;5063169;28;20028;-60
2022/03/05 09:44:56;;;;;;;14.75;11.23;;;32.10;95.90;;;;;;5060934;28;20039;-59
2022/03/05 09:47:23;;;;;;;16.88;10.77;;;32.10;97.00;;;;;;5061738;28;20021;-60
2022/03/05 09:49:50;;;;;;;13.00;11.10;;;32.10;96.90;;;;;;5061443;28;20032;-59
2022/03/05 09:52:17;;;;;;;15.48;10.80;;;32.10;96.40;;;;;;5063832;28;20127;-60
2022/03/05 09:54:44;;;;;;;12.50;11.20;;;32.20;96.70;;;;;;5053309;28;20500;-60
2022/03/05 09:57:12;;;;;;;17.52;10.73;;;32.10;96.30;;;;;;5054405;28;20024;-60
2022/03/05 09:59:40;;;;;;;15.15;11.73;;;32.00;96.40;;;;;;5054437;28;20017;-60
2022/03/05 10:02:07;;;;;;;13.00;11.43;;;32.10;96.70;;;;;;5053612;28;20021;-61
2022/03/05 10:04:34;;;;;;;18.63;13.43;;;32.10;95.60;;;;;;5053208;28;20029;-60
2022/03/05 10:07:14;;;;;;;13.60;11.68;;;32.10;96.60;;;;;;5053350;28;20476;-60
2022/03/05 10:09:43;;;;;;;15.55;12.45;;;32.00;96.20;;;;;;5053244;28;20559;-60
2022/03/05 10:12:27;;;;;;;12.80;11.45;;;32.00;96.30;;;;;;5062818;28;20098;-60
2022/03/05 10:15:03;;;;;;;17.80;12.23;;;32.00;96.20;;;;;;5072590;28;20465;-60
2022/03/05 10:17:43;;;;;;;14.88;11.75;;;32.00;95.60;;;;;;5073250;28;20025;-60
2022/03/05 10:20:10;;;;;;;14.68;12.05;;;31.90;95.80;;;;;;5073369;28;20024;-60
2022/03/05 10:22:36;;;;;;;20.33;12.43;;;32.00;96.20;;;;;;5073391;28;20032;-60
2022/03/05 10:25:03;;;;;;;20.23;12.70;;;32.00;96.40;;;;;;5073268;28;20062;-60
2022/03/05 10:27:34;;;;;;;16.40;10.27;;;32.00;96.90;;;;;;5073079;28;20024;-60
2022/03/05 10:30:00;;;;;;;15.73;10.60;;;32.00;96.30;;;;;;5073266;28;20024;-60
2022/03/05 10:32:28;;;;;;;14.02;11.07;;;32.00;96.20;;;;;;5073466;28;20032;-60
2022/03/05 10:34:55;;;;;;;14.38;11.50;;;32.00;96.40;;;;;;5072927;28;20086;-60
2022/03/05 10:37:23;;;;;;;14.60;11.65;;;32.00;96.50;;;;;;5073205;28;20031;-59
2022/03/05 10:39:51;;;;;;;15.10;11.07;;;32.00;96.80;;;;;;5072786;28;20020;-60
2022/03/05 10:42:24;;;;;;;16.10;10.73;;;32.00;96.40;;;;;;5073120;28;20408;-60
2022/03/05 10:45:12;;;;;;;15.02;11.50;;;32.00;96.00;;;;;;5072753;28;20117;-60
2022/03/05 10:47:46;;;;;;;13.98;11.70;;;32.00;96.90;;;;;;5072825;28;20104;-60
2022/03/05 10:50:27;;;;;;;62.50;36.08;;;32.00;96.60;;;;;;5073732;28;20020;-61
2022/03/05 10:53:01;;;;;;;109.47;63.88;;;31.90;96.50;;;;;;5076904;28;20060;-60
2022/03/05 10:55:38;;;;;;;92.43;51.33;;;31.90;97.10;;;;;;5076424;28;20500;-62
2022/03/05 10:58:14;;;;;;;79.95;52.10;;;31.80;97.40;;;;;;5076921;28;20046;-61
2022/03/05 11:00:42;;;;;;;57.38;41.15;;;31.80;97.30;;;;;;5076736;28;20025;-60
2022/03/05 11:03:08;;;;;;;85.15;63.65;;;31.80;97.50;;;;;;5076403;28;20078;-61
2022/03/05 11:05:39;;;;;;;77.72;54.78;;;31.80;97.70;;;;;;5076408;28;20488;-61
2022/03/05 11:08:06;;;;;;;73.28;53.55;;;31.80;97.90;;;;;;5076209;28;20024;-61
2022/03/05 11:10:33;;;;;;;104.75;69.93;;;31.70;97.60;;;;;;5076240;28;20039;-61
2022/03/05 11:13:03;;;;;;;136.52;83.43;;;31.70;98.00;;;;;;5075323;28;20023;-61
2022/03/05 11:15:32;;;;;;;194.15;112.28;;;31.70;98.00;;;;;;5074901;28;20051;-61
2022/03/05 11:17:59;;;;;;;213.95;125.28;;;31.60;98.20;;;;;;5074294;28;20017;-61
2022/03/05 11:20:27;;;;;;;160.20;99.00;;;31.60;98.60;;;;;;5067872;28;20051;-59
2022/03/05 11:22:55;;;;;;;148.73;88.63;;;31.60;98.90;;;;;;5061390;28;20112;-61
2022/03/05 11:25:25;;;;;;;437.30;259.88;;;31.50;98.90;;;;;;5069756;28;20060;-60
2022/03/05 11:27:58;;;;;;;445.20;266.58;;;31.50;99.00;;;;;;5076760;28;20066;-60
2022/03/05 11:30:26;;;;;;;444.27;240.25;;;31.50;99.00;;;;;;5089475;28;20027;-61
2022/03/05 11:32:53;;;;;;;380.30;217.80;;;31.50;99.70;;;;;;5096898;28;20035;-61
2022/03/05 11:35:30;;;;;;;307.27;170.50;;;31.50;99.70;;;;;;5096324;28;20161;-61
2022/03/05 11:37:57;;;;;;;296.30;158.43;;;31.40;99.90;;;;;;5096022;28;20468;-60
2022/03/05 11:40:39;;;;;;;346.83;169.50;;;31.30;99.90;;;;;;5096381;28;20039;-61
2022/03/05 11:43:24;;;;;;;271.08;138.43;;;31.30;99.90;;;;;;5094843;28;20024;-61
2022/03/05 11:46:00;;;;;;;166.25;93.10;;;31.20;99.90;;;;;;5065511;28;20036;-60
2022/03/05 11:48:32;;;;;;;136.50;88.53;;;31.20;99.50;;;;;;5056211;28;20103;-61
2022/03/05 11:51:07;;;;;;;131.77;83.63;;;31.20;99.30;;;;;;5056054;28;20028;-61
2022/03/05 11:53:33;;;;;;;131.75;83.70;;;31.20;99.60;;;;;;5055577;28;20040;-60
2022/03/05 11:56:21;;;;;;;200.10;150.60;;;31.20;99.90;;;;;;5055048;28;20021;-63
2022/03/05 11:58:48;;;;;;;288.15;244.07;;;31.20;99.90;;;;;;5069418;28;20062;-61
2022/03/05 12:01:22;;;;;;;92.75;59.63;;;31.20;99.90;;;;;;5063087;28;20059;-61
2022/03/05 12:03:51;;;;;;;83.70;55.08;;;31.10;99.90;;;;;;5071697;28;20039;-61
2022/03/05 12:06:18;;;;;;;102.47;60.97;;;31.10;99.90;;;;;;5067076;28;20024;-61
2022/03/05 12:08:50;;;;;;;114.47;61.72;;;31.20;99.90;;;;;;5065091;28;20472;-61
2022/03/05 12:11:19;;;;;;;105.73;58.50;;;31.10;99.90;;;;;;5072691;28;20602;-61
2022/03/05 12:13:54;;;;;;;95.35;54.72;;;31.10;99.90;;;;;;5074551;28;20029;-60
2022/03/05 12:16:29;;;;;;;74.68;48.10;;;31.10;99.90;;;;;;5067114;28;20162;-63
2022/03/05 12:18:58;;;;;;;77.50;49.38;;;31.00;99.90;;;;;;5068901;28;20107;-63
2022/03/05 12:21:30;;;;;;;82.03;49.63;;;31.00;99.90;;;;;;5064619;28;20052;-61
2022/03/05 12:23:59;;;;;;;83.65;50.30;;;30.90;99.90;;;;;;5064735;28;20063;-61
2022/03/05 12:26:37;;;;;;;87.00;51.00;;;30.90;99.90;;;;;;5064039;28;20020;-62
2022/03/05 12:29:06;;;;;;;84.07;49.15;;;30.90;99.90;;;;;;5061977;28;20029;-61
2022/03/05 12:31:33;;;;;;;99.72;55.55;;;30.80;99.90;;;;;;5069674;28;20104;-63